createdAt,value
2018-10-05T00:01:00.005Z,10.73
2018-10-05T00:03:29.331Z,9.10
2018-10-05T00:05:57.657Z,9.30
2018-10-05T00:08:26.317Z,8.07
2018-10-05T00:10:54.569Z,9.97
2018-10-05T00:13:22.825Z,11.60
2018-10-05T00:15:51.971Z,9.67
2018-10-05T00:18:21.238Z,11.23
2018-10-05T00:20:49.493Z,10.67
2018-10-05T00:23:17.771Z,10.47
2018-10-05T00:25:46.817Z,9.10
2018-10-05T00:28:15.154Z,9.07
2018-10-05T00:30:43.450Z,8.80
2018-10-05T00:33:11.738Z,10.90
2018-10-05T00:35:40.584Z,6.73
2018-10-05T00:38:08.889Z,10.37
2018-10-05T00:40:37.570Z,11.43
2018-10-05T00:43:05.941Z,8.93
2018-10-05T00:45:35.039Z,8.67
2018-10-05T00:48:03.338Z,9.47
2018-10-05T00:50:31.606Z,9.63
2018-10-05T00:53:00.405Z,9.43
2018-10-05T00:55:28.658Z,11.33
2018-10-05T00:57:56.952Z,8.67
2018-10-05T01:00:25.301Z,9.60
2018-10-05T01:02:54.062Z,7.93
2018-10-05T01:05:22.290Z,7.90
2018-10-05T01:07:51.429Z,10.27
2018-10-05T01:10:19.750Z,9.90
2018-10-05T01:12:49.143Z,8.47
2018-10-05T01:15:17.938Z,9.13
2018-10-05T01:17:46.210Z,8.90
2018-10-05T01:20:14.482Z,12.53
2018-10-05T01:22:43.169Z,10.20
2018-10-05T01:25:11.426Z,9.17
2018-10-05T01:27:39.784Z,10.00
2018-10-05T01:30:10.899Z,9.03
2018-10-05T01:32:40.957Z,11.97
2018-10-05T01:35:09.328Z,9.37
2018-10-05T01:37:37.946Z,7.33
2018-10-05T01:40:06.837Z,12.07
2018-10-05T01:42:35.570Z,10.90
2018-10-05T01:45:03.875Z,6.30
2018-10-05T01:47:32.179Z,9.43
2018-10-05T01:50:00.450Z,8.83
2018-10-05T01:52:28.731Z,9.10
2018-10-05T01:54:57.079Z,7.43
2018-10-05T01:57:25.386Z,10.90
2018-10-05T01:59:53.656Z,10.00
2018-10-05T02:02:22.966Z,7.97
2018-10-05T02:04:51.593Z,8.63
2018-10-05T02:07:20.396Z,9.23
2018-10-05T02:09:48.673Z,9.97
2018-10-05T02:12:16.961Z,8.37
2018-10-05T02:14:45.267Z,11.07
2018-10-05T02:17:14.122Z,9.53
2018-10-05T02:19:42.393Z,9.40
2018-10-05T02:22:10.668Z,10.47
2018-10-05T02:24:40.258Z,9.83
2018-10-05T02:27:08.503Z,10.47
2018-10-05T02:29:36.774Z,8.27
2018-10-05T02:32:05.514Z,8.20
2018-10-05T02:34:33.797Z,7.17
2018-10-05T02:37:02.078Z,10.27
2018-10-05T02:39:31.107Z,8.60
2018-10-05T02:41:59.997Z,7.33
2018-10-05T02:44:28.231Z,7.63
2018-10-05T02:46:56.485Z,8.43
2018-10-05T02:52:03.094Z,11.33
2018-10-05T02:54:31.370Z,7.07
2018-10-05T02:56:59.654Z,9.47
2018-10-05T02:59:27.945Z,10.13
2018-10-05T03:02:07.973Z,9.57
2018-10-05T03:04:36.252Z,10.07
2018-10-05T03:07:04.526Z,9.50
2018-10-05T03:09:33.102Z,8.03
2018-10-05T03:12:01.351Z,9.67
2018-10-05T03:14:29.598Z,9.33
2018-10-05T03:16:58.217Z,9.40
2018-10-05T03:19:26.464Z,9.07
2018-10-05T03:21:54.718Z,9.53
2018-10-05T03:24:22.997Z,8.13
2018-10-05T03:26:51.300Z,8.70
2018-10-05T03:29:19.622Z,9.17
2018-10-05T03:31:48.071Z,7.80
2018-10-05T03:34:16.399Z,9.40
2018-10-05T03:36:45.291Z,7.30
2018-10-05T03:39:13.878Z,7.50
2018-10-05T03:41:42.638Z,8.27
2018-10-05T03:44:10.919Z,9.43
2018-10-05T03:46:39.846Z,8.77
2018-10-05T03:49:08.742Z,7.53
2018-10-05T03:51:37.018Z,8.97
2018-10-05T03:54:05.277Z,10.30
2018-10-05T03:56:33.558Z,8.70
2018-10-05T03:59:01.836Z,9.83
2018-10-05T04:01:30.513Z,12.53
2018-10-05T04:03:59.194Z,9.07
2018-10-05T04:06:27.469Z,7.43
2018-10-05T04:08:56.274Z,8.10
2018-10-05T04:11:24.529Z,8.97
2018-10-05T04:13:53.199Z,10.30
2018-10-05T04:16:21.723Z,8.40
2018-10-05T04:18:49.986Z,7.53
2018-10-05T04:21:18.237Z,9.17
2018-10-05T04:23:46.568Z,10.63
2018-10-05T04:26:14.826Z,9.60
2018-10-05T04:28:43.837Z,7.63
2018-10-05T04:31:12.353Z,7.50
2018-10-05T04:33:40.914Z,9.30
2018-10-05T04:36:09.165Z,7.57
2018-10-05T04:38:37.421Z,9.80
2018-10-05T04:41:06.163Z,9.30
2018-10-05T04:43:34.463Z,8.13
2018-10-05T04:46:03.471Z,8.30
2018-10-05T04:48:31.762Z,11.30
2018-10-05T04:50:59.998Z,9.50
2018-10-05T04:53:28.396Z,10.60
2018-10-05T04:55:56.682Z,9.37
2018-10-05T04:58:25.079Z,9.33
2018-10-05T05:00:53.354Z,10.60
2018-10-05T05:03:22.179Z,10.53
2018-10-05T05:05:50.571Z,9.20
2018-10-05T05:08:19.384Z,12.93
2018-10-05T05:10:47.781Z,8.87
2018-10-05T05:13:16.039Z,8.90
2018-10-05T05:15:45.134Z,10.03
2018-10-05T05:18:13.389Z,9.20
2018-10-05T05:20:42.566Z,8.67
2018-10-05T05:23:12.141Z,9.17
2018-10-05T05:25:40.481Z,9.77
2018-10-05T05:28:08.737Z,11.53
2018-10-05T05:30:37.320Z,9.53
2018-10-05T05:33:05.586Z,10.93
2018-10-05T05:35:33.865Z,11.63
2018-10-05T05:38:02.205Z,13.03
2018-10-05T05:40:30.451Z,9.00
2018-10-05T05:42:58.813Z,12.63
2018-10-05T05:45:28.041Z,8.50
2018-10-05T05:47:56.371Z,12.97
2018-10-05T05:50:24.648Z,13.27
2018-10-05T05:52:52.930Z,16.33
2018-10-05T05:55:21.219Z,10.83
2018-10-05T05:57:49.548Z,12.50
2018-10-05T06:00:17.858Z,12.53
2018-10-05T06:02:46.752Z,10.57
2018-10-05T06:05:15.033Z,14.47
2018-10-05T06:07:44.418Z,12.67
2018-10-05T06:10:13.393Z,12.47
2018-10-05T06:12:42.518Z,12.73
2018-10-05T06:15:11.332Z,9.73
2018-10-05T06:17:39.638Z,9.60
2018-10-05T06:20:08.485Z,12.40
2018-10-05T06:22:37.527Z,10.17
2018-10-05T06:25:06.018Z,8.23
2018-10-05T06:27:34.291Z,8.80
2018-10-05T06:30:02.653Z,11.77
2018-10-05T06:32:30.922Z,9.80
2018-10-05T06:34:59.278Z,10.50
2018-10-05T06:37:29.714Z,8.80
2018-10-05T06:39:58.594Z,9.30
2018-10-05T06:42:27.329Z,8.97
2018-10-05T06:44:55.549Z,9.27
2018-10-05T06:47:24.546Z,13.27
2018-10-05T06:49:52.793Z,12.30
2018-10-05T06:52:21.068Z,9.87
2018-10-05T06:54:49.361Z,11.23
2018-10-05T06:57:17.953Z,9.40
2018-10-05T06:59:46.314Z,9.77
2018-10-05T07:02:14.894Z,13.00
2018-10-05T07:04:43.671Z,10.00
2018-10-05T07:07:12.748Z,8.67
2018-10-05T07:09:41.042Z,8.07
2018-10-05T07:12:09.330Z,12.60
2018-10-05T07:14:37.942Z,9.97
2018-10-05T07:17:06.783Z,8.67
2018-10-05T07:19:35.041Z,7.87
2018-10-05T07:22:03.407Z,8.90
2018-10-05T07:24:31.673Z,10.03
2018-10-05T07:27:00.143Z,10.30
2018-10-05T07:29:28.418Z,9.03
2018-10-05T07:31:56.689Z,9.37
2018-10-05T07:34:25.033Z,9.37
2018-10-05T07:36:53.364Z,9.77
2018-10-05T07:39:22.937Z,11.57
2018-10-05T07:41:53.664Z,10.63
2018-10-05T07:44:21.959Z,11.57
2018-10-05T07:48:15.329Z,10.50
2018-10-05T07:50:44.343Z,14.70
2018-10-05T07:53:13.230Z,9.83
2018-10-05T07:55:41.494Z,9.20
2018-10-05T07:58:09.774Z,10.83
2018-10-05T08:00:38.078Z,9.70
2018-10-05T08:03:07.290Z,11.93
2018-10-05T08:05:36.150Z,11.60
2018-10-05T08:08:04.960Z,10.83
2018-10-05T08:10:33.258Z,12.60
2018-10-05T08:13:01.538Z,14.07
2018-10-05T08:15:30.374Z,13.13
2018-10-05T08:17:58.646Z,16.83
2018-10-05T08:20:26.919Z,12.10
2018-10-05T08:22:55.223Z,10.48
2018-10-05T08:25:23.527Z,12.25
2018-10-05T08:27:51.958Z,15.40
2018-10-05T08:30:20.470Z,15.83
2018-10-05T08:32:48.748Z,9.35
2018-10-05T08:35:17.055Z,12.18
2018-10-05T08:37:45.358Z,10.80
2018-10-05T08:40:13.731Z,12.23
2018-10-05T08:42:42.374Z,9.48
2018-10-05T08:45:11.371Z,14.38
2018-10-05T08:47:39.638Z,11.88
2018-10-05T08:50:08.266Z,11.05
2018-10-05T08:52:36.517Z,8.05
2018-10-05T08:55:04.765Z,10.25
2018-10-05T08:57:33.054Z,8.78
2018-10-05T09:00:01.619Z,12.35
2018-10-05T09:02:30.278Z,10.63
2018-10-05T09:04:58.541Z,10.68
2018-10-05T09:07:27.157Z,15.20
2018-10-05T09:09:55.410Z,8.75
2018-10-05T09:12:23.695Z,16.62
2018-10-05T09:14:52.031Z,11.80
2018-10-05T09:17:21.089Z,10.90
2018-10-05T09:19:50.188Z,10.50
2018-10-05T09:22:18.435Z,10.53
2018-10-05T09:24:48.210Z,13.05
2018-10-05T09:27:16.503Z,10.65
2018-10-05T09:29:44.825Z,10.32
2018-10-05T09:32:13.473Z,13.70
2018-10-05T09:34:41.734Z,10.03
2018-10-05T09:37:10.051Z,8.73
2018-10-05T09:39:38.512Z,13.78
2018-10-05T09:42:07.330Z,12.53
2018-10-05T09:44:35.654Z,7.67
2018-10-05T09:47:04.410Z,9.73
2018-10-05T09:49:33.614Z,9.40
2018-10-05T09:52:01.940Z,9.45
2018-10-05T09:54:30.179Z,7.47
2018-10-05T09:56:58.471Z,7.47
2018-10-05T09:59:27.222Z,8.98
2018-10-05T10:02:02.114Z,10.98
2018-10-05T10:04:30.935Z,8.05
2018-10-05T10:06:59.219Z,6.33
2018-10-05T10:09:27.714Z,10.48
2018-10-05T10:11:56.005Z,9.13
2018-10-05T10:14:24.262Z,9.70
2018-10-05T10:16:52.822Z,10.25
2018-10-05T10:19:21.073Z,9.60
2018-10-05T10:21:50.453Z,8.30
2018-10-05T10:24:18.717Z,6.97
2018-10-05T10:26:47.130Z,11.10
2018-10-05T10:29:15.573Z,8.63
2018-10-05T10:31:43.752Z,10.13
2018-10-05T10:34:12.078Z,6.60
2018-10-05T10:36:40.833Z,8.33
2018-10-05T10:39:09.099Z,8.93
2018-10-05T10:41:37.373Z,7.72
2018-10-05T10:44:05.806Z,6.78
2018-10-05T10:46:34.745Z,7.37
2018-10-05T10:49:03.029Z,10.08
2018-10-05T10:51:31.301Z,9.35
2018-10-05T10:53:59.636Z,4.95
2018-10-05T10:56:27.884Z,10.50
2018-10-05T10:58:56.240Z,4.78
2018-10-05T11:01:24.521Z,7.55
2018-10-05T11:03:53.274Z,6.10
2018-10-05T11:06:21.543Z,6.28
2018-10-05T11:08:50.214Z,5.42
2018-10-05T11:11:18.498Z,6.17
2018-10-05T11:13:47.154Z,7.92
2018-10-05T11:16:17.862Z,6.47
2018-10-05T11:18:46.116Z,7.08
2018-10-05T11:21:14.398Z,5.12
2018-10-05T11:23:42.685Z,7.35
2018-10-05T11:26:10.966Z,5.80
2018-10-05T11:28:39.950Z,8.33
2018-10-05T11:31:08.269Z,6.53
2018-10-05T11:33:37.371Z,5.25
2018-10-05T11:36:06.525Z,4.35
2018-10-05T11:38:34.754Z,5.95
2018-10-05T11:41:03.174Z,6.60
2018-10-05T11:43:31.613Z,7.12
2018-10-05T11:46:00.354Z,5.92
2018-10-05T11:48:28.626Z,6.17
2018-10-05T11:50:56.904Z,6.40
2018-10-05T11:53:25.206Z,7.25
2018-10-05T11:55:54.502Z,5.62
2018-10-05T11:58:22.984Z,5.78
2018-10-05T12:00:51.182Z,6.40
2018-10-05T12:03:20.241Z,7.53
2018-10-05T12:05:48.529Z,5.53
2018-10-05T12:08:17.417Z,5.22
2018-10-05T12:10:45.697Z,5.05
2018-10-05T12:13:13.996Z,6.60
2018-10-05T12:15:42.860Z,6.72
2018-10-05T12:18:11.184Z,5.22
2018-10-05T12:20:39.586Z,8.25
2018-10-05T12:23:08.630Z,8.28
2018-10-05T12:25:37.207Z,5.03
2018-10-05T12:28:05.498Z,7.50
2018-10-05T12:30:33.866Z,6.95
2018-10-05T12:33:02.538Z,8.60
2018-10-05T12:35:30.870Z,7.20
2018-10-05T12:37:59.174Z,8.35
2018-10-05T12:40:27.491Z,6.75
2018-10-05T12:42:55.771Z,6.62
2018-10-05T12:45:24.725Z,5.60
2018-10-05T12:47:52.977Z,6.25
2018-10-05T12:50:21.641Z,6.25
2018-10-05T12:55:15.512Z,5.33
2018-10-05T12:57:43.775Z,6.00
2018-10-05T13:00:12.059Z,6.37
2018-10-05T13:02:41.046Z,3.92
2018-10-05T13:05:09.329Z,6.97
2018-10-05T13:07:38.081Z,6.47
2018-10-05T13:10:06.872Z,6.15
2018-10-05T13:12:35.137Z,5.30
2018-10-05T13:15:05.470Z,3.87
2018-10-05T13:17:33.913Z,5.30
2018-10-05T13:20:02.174Z,8.10
2018-10-05T13:22:30.457Z,4.62
2018-10-05T13:24:58.811Z,6.28
2018-10-05T13:27:27.090Z,16.05
2018-10-05T13:29:55.551Z,4.62
2018-10-05T13:32:24.579Z,9.98
2018-10-05T13:34:52.855Z,5.42
2018-10-05T13:37:21.202Z,4.83
2018-10-05T13:39:49.436Z,4.83
2018-10-05T13:42:17.708Z,5.45
2018-10-05T13:44:46.069Z,4.47
2018-10-05T13:47:14.895Z,2.37
2018-10-05T13:49:43.181Z,3.65
2018-10-05T13:52:11.466Z,3.22
2018-10-05T13:54:40.803Z,3.45
2018-10-05T13:57:09.077Z,5.55
2018-10-05T13:59:38.253Z,5.53
2018-10-05T14:02:07.365Z,4.17
2018-10-05T14:04:36.311Z,6.95
2018-10-05T14:07:04.678Z,4.47
2018-10-05T14:09:33.402Z,3.02
2018-10-05T14:12:02.001Z,4.25
2018-10-05T14:14:30.288Z,4.35
2018-10-05T14:16:59.039Z,4.58
2018-10-05T14:19:27.333Z,5.25
2018-10-05T14:21:55.678Z,7.90
2018-10-05T14:24:24.004Z,4.05
2018-10-05T14:26:52.651Z,4.35
2018-10-05T14:29:20.971Z,5.10
2018-10-05T14:31:49.249Z,3.62
2018-10-05T14:34:17.724Z,3.65
2018-10-05T14:36:46.006Z,4.40
2018-10-05T14:39:14.341Z,5.33
2018-10-05T14:41:42.694Z,5.28
2018-10-05T14:44:10.927Z,7.67
2018-10-05T14:46:39.942Z,3.25
2018-10-05T14:49:08.813Z,4.12
2018-10-05T14:51:37.407Z,3.87
2018-10-05T14:54:06.251Z,3.58
2018-10-05T14:56:34.966Z,4.25
2018-10-05T14:59:03.677Z,6.15
2018-10-05T15:01:32.048Z,10.00
2018-10-05T15:04:00.862Z,5.55
2018-10-05T15:06:29.152Z,7.53
2018-10-05T15:08:57.788Z,4.50
2018-10-05T15:11:26.566Z,3.67
2018-10-05T15:13:54.898Z,5.30
2018-10-05T15:16:23.614Z,3.35
2018-10-05T15:18:52.514Z,4.22
2018-10-05T15:21:20.914Z,7.15
2018-10-05T15:23:49.178Z,3.80
2018-10-05T15:26:17.475Z,4.22
2018-10-05T15:28:46.554Z,2.55
2018-10-05T15:31:14.935Z,4.22
2018-10-05T15:33:43.220Z,3.35
2018-10-05T15:36:11.551Z,3.95
2018-10-05T15:38:39.923Z,3.62
2018-10-05T15:41:08.934Z,3.25
2018-10-05T15:43:37.226Z,5.12
2018-10-05T15:46:08.270Z,6.35
2018-10-05T15:48:36.691Z,4.92
2018-10-05T15:51:05.430Z,3.67
2018-10-05T15:53:34.126Z,3.67
2018-10-05T15:56:03.296Z,3.77
2018-10-05T15:58:31.569Z,5.37
2018-10-05T16:00:59.866Z,3.77
2018-10-05T16:03:28.466Z,3.58
2018-10-05T16:05:56.785Z,4.20
2018-10-05T16:08:25.417Z,5.70
2018-10-05T16:10:54.405Z,5.45
2018-10-05T16:13:22.782Z,6.05
2018-10-05T16:15:51.331Z,4.67
2018-10-05T16:18:19.706Z,5.17
2018-10-05T16:20:47.990Z,5.12
2018-10-05T16:23:16.606Z,10.18
2018-10-05T16:25:44.880Z,3.45
2018-10-05T16:28:13.158Z,3.58
2018-10-05T16:30:41.507Z,5.03
2018-10-05T16:33:09.838Z,5.75
2018-10-05T16:35:38.306Z,4.55
2018-10-05T16:38:07.185Z,3.75
2018-10-05T16:40:36.461Z,5.05
2018-10-05T16:43:05.267Z,6.35
2018-10-05T16:45:34.125Z,4.58
2018-10-05T16:48:02.438Z,4.70
2018-10-05T16:50:30.739Z,4.15
2018-10-05T16:52:59.087Z,3.95
2018-10-05T16:55:27.612Z,5.78
2018-10-05T16:57:59.103Z,5.55
2018-10-05T17:00:28.062Z,4.83
2018-10-05T17:02:56.745Z,3.62
2018-10-05T17:05:25.046Z,5.65
2018-10-05T17:07:53.942Z,4.87
2018-10-05T17:10:22.672Z,7.83
2018-10-05T17:12:51.014Z,5.42
2018-10-05T17:15:19.812Z,4.78
2018-10-05T17:17:48.168Z,9.33
2018-10-05T17:20:16.550Z,7.05
2018-10-05T17:22:44.850Z,6.83
2018-10-05T17:25:13.141Z,6.53
2018-10-05T17:27:41.779Z,5.90
2018-10-05T17:30:10.718Z,7.22
2018-10-05T17:32:39.401Z,5.03
2018-10-05T17:35:07.865Z,7.15
2018-10-05T17:37:36.187Z,5.22
2018-10-05T17:40:05.046Z,5.95
2018-10-05T17:42:33.436Z,5.33
2018-10-05T17:45:01.837Z,11.28
2018-10-05T17:47:30.950Z,8.50
2018-10-05T17:49:59.210Z,6.95
2018-10-05T17:52:27.613Z,6.25
2018-10-05T17:54:56.221Z,5.95
2018-10-05T17:57:24.941Z,8.65
2018-10-05T17:59:53.271Z,6.17
2018-10-05T18:02:21.846Z,5.60
2018-10-05T18:04:50.244Z,8.23
2018-10-05T18:07:19.214Z,6.40
2018-10-05T18:09:47.513Z,7.12
2018-10-05T18:12:16.534Z,6.47
2018-10-05T18:14:45.726Z,9.93
2018-10-05T18:17:14.266Z,7.58
2018-10-05T18:19:42.547Z,15.23
2018-10-05T18:22:10.967Z,9.85
2018-10-05T18:24:39.610Z,12.67
2018-10-05T18:27:08.853Z,13.50
2018-10-05T18:29:37.173Z,13.87
2018-10-05T18:32:05.798Z,15.53
2018-10-05T18:34:34.122Z,16.90
2018-10-05T18:37:02.417Z,16.73
2018-10-05T18:39:30.737Z,16.20
2018-10-05T18:41:59.011Z,15.17
2018-10-05T18:46:58.943Z,17.57
2018-10-05T18:49:27.619Z,19.20
2018-10-05T18:51:55.938Z,17.37
2018-10-05T18:54:24.249Z,16.53
2018-10-05T18:57:03.805Z,19.67
2018-10-05T18:59:32.274Z,15.93
2018-10-05T19:02:01.549Z,15.17
2018-10-05T19:04:30.429Z,13.53
2018-10-05T19:06:59.136Z,14.30
2018-10-05T19:09:27.571Z,12.93
2018-10-05T19:11:56.274Z,16.37
2018-10-05T19:14:24.634Z,14.33
2018-10-05T19:16:53.275Z,15.23
2018-10-05T19:19:21.579Z,19.55
2018-10-05T19:21:50.349Z,20.83
2018-10-05T19:24:18.577Z,15.90
2018-10-05T19:26:48.352Z,17.07
2018-10-05T19:29:16.998Z,18.30
2018-10-05T19:31:45.674Z,18.67
2018-10-05T19:34:14.477Z,17.30
2018-10-05T19:36:42.835Z,17.02
2018-10-05T19:39:11.796Z,15.93
2018-10-05T19:41:40.759Z,14.57
2018-10-05T19:44:09.449Z,12.57
2018-10-05T19:46:38.357Z,12.63
2018-10-05T19:49:10.578Z,11.37
2018-10-05T19:51:38.898Z,12.97
2018-10-05T19:54:07.207Z,14.33
2018-10-05T19:56:35.518Z,12.40
2018-10-05T19:59:03.918Z,10.07
2018-10-05T20:01:32.722Z,11.43
2018-10-05T20:04:01.472Z,14.10
2018-10-05T20:06:29.785Z,10.87
2018-10-05T20:08:58.817Z,11.97
2018-10-05T20:11:27.602Z,12.27
2018-10-05T20:13:55.879Z,11.47
2018-10-05T20:16:24.513Z,10.80
2018-10-05T20:18:52.790Z,11.77
2018-10-05T20:21:21.077Z,13.20
2018-10-05T20:23:49.605Z,11.27
2018-10-05T20:26:17.921Z,10.73
2018-10-05T20:28:46.189Z,10.10
2018-10-05T20:31:14.725Z,9.53
2018-10-05T20:33:43.062Z,9.50
2018-10-05T20:36:11.478Z,12.17
2018-10-05T20:38:40.158Z,9.37
2018-10-05T20:41:08.408Z,10.97
2018-10-05T20:43:36.730Z,12.40
2018-10-05T20:46:05.718Z,9.13
2018-10-05T20:48:33.981Z,9.67
2018-10-05T20:51:02.993Z,8.93
2018-10-05T20:53:31.313Z,8.87
2018-10-05T20:55:59.633Z,9.50
2018-10-05T20:58:27.931Z,8.70
2018-10-05T21:00:56.234Z,10.07
2018-10-05T21:03:24.866Z,10.13
2018-10-05T21:05:53.402Z,10.77
2018-10-05T21:08:22.197Z,11.33
2018-10-05T21:10:51.083Z,12.33
2018-10-05T21:13:19.807Z,10.47
2018-10-05T21:15:48.527Z,10.03
2018-10-05T21:18:17.426Z,12.27
2018-10-05T21:20:45.730Z,10.20
2018-10-05T21:23:14.098Z,8.43
2018-10-05T21:25:42.452Z,8.60
2018-10-05T21:28:10.749Z,10.43
2018-10-05T21:30:39.518Z,7.80
2018-10-05T21:33:07.854Z,8.57
2018-10-05T21:35:36.118Z,10.00
2018-10-05T21:38:04.416Z,9.30
2018-10-05T21:40:33.207Z,10.27
2018-10-05T21:43:01.538Z,8.90
2018-10-05T21:45:30.226Z,8.60
2018-10-05T21:47:58.801Z,7.90
2018-10-05T21:50:27.078Z,8.77
2018-10-05T21:52:55.440Z,10.43
2018-10-05T21:55:23.982Z,13.40
2018-10-05T21:57:52.262Z,9.13
2018-10-05T22:00:20.971Z,9.43
2018-10-05T22:02:49.853Z,9.03
2018-10-05T22:05:18.141Z,7.30
2018-10-05T22:07:46.950Z,6.87
2018-10-05T22:10:15.576Z,8.73
2018-10-05T22:12:44.377Z,8.20
2018-10-05T22:15:12.908Z,9.20
2018-10-05T22:17:41.189Z,9.73
2018-10-05T22:20:09.466Z,10.27
2018-10-05T22:22:37.762Z,10.20
2018-10-05T22:25:06.116Z,10.47
2018-10-05T22:27:34.909Z,8.50
2018-10-05T22:30:03.510Z,9.00
2018-10-05T22:32:31.779Z,9.30
2018-10-05T22:35:00.116Z,9.27
2018-10-05T22:37:28.388Z,9.07
2018-10-05T22:39:56.739Z,9.80
2018-10-05T22:42:25.075Z,10.70
2018-10-05T22:44:53.365Z,9.87
2018-10-05T22:47:22.094Z,8.17
2018-10-05T22:49:50.346Z,7.80
2018-10-05T22:52:18.622Z,8.50
2018-10-05T22:54:46.903Z,8.20
2018-10-05T22:57:15.176Z,8.97
2018-10-05T22:59:43.942Z,11.77
2018-10-05T23:02:12.588Z,10.10
2018-10-05T23:04:41.150Z,8.53
2018-10-05T23:07:10.265Z,11.00
2018-10-05T23:09:38.561Z,9.43
2018-10-05T23:12:07.546Z,9.57
2018-10-05T23:14:35.826Z,7.60
2018-10-05T23:17:04.460Z,7.30
2018-10-05T23:19:32.735Z,8.30
2018-10-05T23:22:01.287Z,7.80
2018-10-05T23:24:30.054Z,9.03
2018-10-05T23:26:58.305Z,7.00
2018-10-05T23:29:26.629Z,10.57
2018-10-05T23:31:55.239Z,7.60
2018-10-05T23:34:23.534Z,9.97
2018-10-05T23:36:51.810Z,7.80
2018-10-05T23:39:20.126Z,7.73
2018-10-05T23:41:48.404Z,9.40
2018-10-05T23:44:16.738Z,7.03
2018-10-05T23:46:45.714Z,7.10
2018-10-05T23:49:13.970Z,7.60
2018-10-05T23:51:42.530Z,7.60
2018-10-05T23:54:10.807Z,8.93
2018-10-05T23:56:39.088Z,11.13
2018-10-05T23:59:07.630Z,9.80
